Sct Santiago — V7NF7 — position and weather

sailwx.info

Track history (hours):
 
Tides and Currents Weather Stations Pressure Air Temp Water Temp Dewpoint Dewpoint Depression Visibility Wind Speed Wind Dir Waves Ship Positions

Sct Santiago

Last reported at 2015-Jul-30 02:27 UTC. Time now 2015-Aug-05 08:27 UTC.
Position N 31°16' E 032°19'.

Length 294 m; draft 12.3 m.

Type: Cargo ship. MMSI: 538002953.

Date/timePositionNaut miles runAvg speedWind from/ knotsBaromVisibWave heightAir tempDewpointWater temp
2015-Jul-30 02:27N 31°16' E 032°19'6 6.8
2015-Jul-30 01:33N 31°21' E 032°22'4 1.2
2015-Jul-29 22:22N 31°24' E 032°19'0 0.0
2015-Jul-29 21:31N 31°24' E 032°19'0 0.0
2015-Jul-29 20:28N 31°24' E 032°19'0 0.0
2015-Jul-29 19:31N 31°24' E 032°19'0 0.0
2015-Jul-29 18:28N 31°24' E 032°19'0 0.0
2015-Jul-29 17:31N 31°24' E 032°19'0 0.5
2015-Jul-29 16:32N 31°24' E 032°18'3115.6
2015-Jul-29 14:33N 31°46' E 031°53'1818.1
2015-Jul-29 13:33N 31°54' E 031°34'1917.9
2015-Jul-29 12:30N 32°01' E 031°13'1717.8
2015-Jul-29 11:33N 32°07' E 030°55'2416.8
2015-Jul-29 10:09N 32°16' E 030°29'1516.6
2015-Jul-29 09:15N 32°22' E 030°13'3316.9
2015-Jul-29 07:17N 32°35' E 029°37'5517.1
2015-Jul-29 04:06N 32°56' E 028°37'917.4
2015-Jul-29 03:33N 32°60' E 028°27'1717.5
2015-Jul-29 02:33N 33°07' E 028°07'2217.4
2015-Jul-29 01:19N 33°15' E 027°44'1317.2
2015-Jul-29 00:33N 33°20' E 027°29'1717.1
2015-Jul-28 23:33N 33°27' E 027°10'1716.8
2015-Jul-28 22:33N 33°33' E 026°52'3516.7
2015-Jul-28 20:27N 33°47' E 026°13'20917.6
2015-Jul-28 08:32N 35°12' E 022°21'35817.0
2015-Jul-27 11:33N 37°52' E 015°43'1515.5
2015-Jul-27 10:33N 38°05' E 015°34'1515.2
2015-Jul-27 09:33N 38°19' E 015°42'1211.9
2015-Jul-27 08:34N 38°27' E 015°54'1 0.8
2015-Jul-27 07:29N 38°27' E 015°54'0 0.0
2015-Jul-27 06:29N 38°27' E 015°54'0 0.0
2015-Jul-27 05:29N 38°27' E 015°54'0 0.0
2015-Jul-27 04:32N 38°27' E 015°54'0 0.0
2015-Jul-27 03:29N 38°27' E 015°54'0 0.0
2015-Jul-27 02:29N 38°27' E 015°54'0 0.0
2015-Jul-27 01:32N 38°27' E 015°54'0 0.0
2015-Jul-27 00:32N 38°27' E 015°54'0 0.0
2015-Jul-26 23:32N 38°27' E 015°54'0 0.0
2015-Jul-26 22:29N 38°27' E 015°54'0 0.0
2015-Jul-26 21:29N 38°27' E 015°54'0 0.0
2015-Jul-26 20:32N 38°27' E 015°54'0 0.0
2015-Jul-26 19:32N 38°27' E 015°54'0 0.0
2015-Jul-26 18:26N 38°27' E 015°54'0 0.0
2015-Jul-26 17:32N 38°27' E 015°54'0 0.0
2015-Jul-26 16:32N 38°27' E 015°54'0 0.0
2015-Jul-26 15:29N 38°27' E 015°54'0 0.0
2015-Jul-26 14:32N 38°27' E 015°54'0 0.0
2015-Jul-26 13:32N 38°27' E 015°54'0 0.0
2015-Jul-26 12:32N 38°27' E 015°54'0 0.0
2015-Jul-26 11:32N 38°27' E 015°54'0 0.0
2015-Jul-26 10:11N 38°27' E 015°54'0 0.0
2015-Jul-26 09:32N 38°27' E 015°54'0 0.0
2015-Jul-26 08:32N 38°27' E 015°54'0 0.0
2015-Jul-26 07:26N 38°27' E 015°54'0 0.0
2015-Jul-26 06:32N 38°27' E 015°54'2 2.3
2015-Jul-26 05:33N 38°28' E 015°52'9 8.6
2015-Jul-26 04:33N 38°35' E 015°45'1817.9
2015-Jul-26 03:33N 38°50' E 015°32'10821.1
2015-Jul-25 22:26N 40°19' E 014°13'1719.5
2015-Jul-25 21:34N 40°36' E 014°06'1716.6
2015-Jul-25 20:33N 40°49' E 014°18'1 0.1
2015-Jul-25 12:23N 40°50' E 014°17'0 0.0
2015-Jul-25 10:29N 40°50' E 014°17'0 0.0
2015-Jul-25 09:29N 40°50' E 014°17'0 0.0
2015-Jul-25 07:32N 40°50' E 014°17'0 0.0
2015-Jul-25 06:32N 40°50' E 014°17'0 0.0
2015-Jul-24 23:08N 40°50' E 014°17'0 0.0
2015-Jul-24 22:29N 40°50' E 014°17'0 0.1
2015-Jul-24 21:32N 40°50' E 014°17'3 2.7
2015-Jul-24 20:33N 40°48' E 014°17'1312.9
2015-Jul-24 19:33N 40°39' E 014°05'2221.8
2015-Jul-24 18:33N 40°40' E 013°36'11922.0
2015-Jul-24 13:09N 41°36' E 011°17'1322.3
2015-Jul-24 12:33N 41°44' E 011°02'2222.2
2015-Jul-24 11:33N 41°57' E 010°38'5021.4
2015-Jul-24 09:12N 42°34' E 009°52'3621.6
2015-Jul-24 07:33N 43°09' E 009°41'2222.1
2015-Jul-24 06:34N 43°31' E 009°45'2222.0
2015-Jul-24 05:33N 43°52' E 009°51'1413.7
2015-Jul-24 04:31N 44°06' E 009°51'0 0.0
2015-Jul-24 03:31N 44°06' E 009°51'0 0.0
2015-Jul-24 02:31N 44°06' E 009°51'0 0.0
2015-Jul-24 01:31N 44°06' E 009°51'0 0.0
2015-Jul-24 00:28N 44°06' E 009°51'0 0.0
2015-Jul-23 23:31N 44°06' E 009°51'0 0.0
2015-Jul-23 22:31N 44°06' E 009°51'0 0.0
2015-Jul-23 21:31N 44°06' E 009°51'0 0.0
2015-Jul-23 20:31N 44°06' E 009°51'0 0.0
2015-Jul-23 19:31N 44°06' E 009°51'0 0.0
2015-Jul-23 18:31N 44°06' E 009°51'0 0.0
2015-Jul-23 17:31N 44°06' E 009°51'0 0.0
2015-Jul-23 16:31N 44°06' E 009°51'3 3.0
2015-Jul-23 15:33N 44°04' E 009°52'5 5.4
2015-Jul-23 14:33N 43°59' E 009°55'3 3.3
2015-Jul-23 13:32N 43°58' E 009°50'0 0.0
2015-Jul-23 12:32N 43°58' E 009°50'0 0.0
2015-Jul-23 11:32N 43°58' E 009°50'0 0.0
2015-Jul-23 10:32N 43°58' E 009°50'0 0.0
2015-Jul-23 09:32N 43°58' E 009°50'0 0.0
2015-Jul-23 08:29N 43°58' E 009°50'0 0.5
2015-Jul-23 07:34N 43°58' E 009°49'1313.1
2015-Jul-23 06:33N 43°52' E 009°33'1818.0
2015-Jul-23 05:33N 43°44' E 009°11'1818.0
2015-Jul-23 04:33N 43°36' E 008°49'1817.9
2015-Jul-23 03:33N 43°28' E 008°27'1717.5
2015-Jul-23 02:33N 43°19' E 008°05'1916.8
2015-Jul-23 01:25N 43°11' E 007°42'1516.9
2015-Jul-23 00:33N 43°05' E 007°24'1716.7
2015-Jul-22 23:33N 42°57' E 007°03'1716.6
2015-Jul-22 22:34N 42°50' E 006°43'1616.3
2015-Jul-22 21:33N 42°45' E 006°22'1616.6
2015-Jul-22 20:33N 42°45' E 005°59'1616.2
2015-Jul-22 19:33N 42°49' E 005°38'1717.2
2015-Jul-22 18:33N 43°00' E 005°20'1817.6
2015-Jul-22 17:33N 43°11' E 005°02'1313.4
2015-Jul-22 16:33N 43°24' E 004°55'4 3.5
2015-Jul-22 15:31N 43°25' E 004°50'0 0.0
2015-Jul-22 14:31N 43°25' E 004°50'0 0.0
2015-Jul-22 13:31N 43°25' E 004°50'0 0.0
2015-Jul-22 12:31N 43°25' E 004°50'0 0.0
2015-Jul-22 11:31N 43°25' E 004°50'0 0.0
2015-Jul-22 10:31N 43°25' E 004°50'0 0.0
2015-Jul-22 09:31N 43°25' E 004°50'0 0.0
2015-Jul-22 08:31N 43°25' E 004°50'0 0.0
2015-Jul-22 07:28N 43°25' E 004°50'0 0.0
2015-Jul-22 06:31N 43°25' E 004°50'0 0.0
2015-Jul-22 05:28N 43°25' E 004°50'0 0.0
2015-Jul-22 04:31N 43°25' E 004°50'0 0.0
2015-Jul-22 03:31N 43°25' E 004°50'0 0.2
2015-Jul-22 02:33N 43°25' E 004°50'7 6.6
2015-Jul-22 01:33N 43°22' E 004°58'1110.7
2015-Jul-22 00:33N 43°11' E 005°02'2019.8
2015-Jul-21 23:33N 42°54' E 004°48'1919.1
2015-Jul-21 22:33N 42°39' E 004°33'1919.0
2015-Jul-21 21:33N 42°23' E 004°20'1919.3
2015-Jul-21 20:33N 42°06' E 004°05'1919.2
2015-Jul-21 19:33N 41°51' E 003°50'1918.7
2015-Jul-21 18:33N 41°36' E 003°34'1918.8
2015-Jul-21 17:33N 41°22' E 003°18'1919.0
2015-Jul-21 16:33N 41°07' E 003°02'1919.1
2015-Jul-21 15:33N 40°52' E 002°46'1919.2
2015-Jul-21 14:33N 40°38' E 002°30'1919.4
2015-Jul-21 13:33N 40°23' E 002°13'1919.6
2015-Jul-21 12:34N 40°07' E 001°57'1919.3
2015-Jul-21 11:33N 39°52' E 001°41'2019.1
2015-Jul-21 10:32N 39°38' E 001°25'1919.2
2015-Jul-21 09:32N 39°23' E 001°09'1919.4
2015-Jul-21 08:33N 39°08' E 000°54'1919.1
2015-Jul-21 07:34N 38°53' E 000°38'1919.1
2015-Jul-21 06:33N 38°37' E 000°24'1919.4
2015-Jul-21 05:33N 38°21' E 000°10'2019.4
2015-Jul-21 04:33N 38°05' W 000°03'1919.4
2015-Jul-21 03:33N 37°49' W 000°16'2019.8
2015-Jul-21 02:33N 37°33' W 000°32'2019.7
2015-Jul-21 01:33N 37°20' W 000°50'2019.3
2015-Jul-21 00:30N 37°06' W 001°09'1919.7
2015-Jul-20 23:33N 36°55' W 001°27'5918.9
2015-Jul-20 20:26N 36°20' W 002°27'27719.8
2015-Jul-20 06:24N 36°19' W 008°11'1821.7
2015-Jul-20 05:34N 36°23' W 008°33'2121.5
2015-Jul-20 04:34N 36°29' W 008°59'2420.3
2015-Jul-20 03:23N 36°40' W 009°25'  
Track history (hours):
 
Tides and Currents Weather Stations Pressure Air Temp Water Temp Dewpoint Dewpoint Depression Visibility Wind Speed Wind Dir Waves Ship Positions

Sct Santiago

Last reported at 2015-Jul-30 02:27 UTC. Time now 2015-Aug-05 08:27 UTC.
Position N 31°16' E 032°19'.

Length 294 m; draft 12.3 m.

Type: Cargo ship. MMSI: 538002953.

Date/timePositionNaut miles runAvg speedWind from/ knotsBaromVisibWave heightAir tempDewpointWater temp
2015-Jul-30 02:27N 31°16' E 032°19'6 6.8
2015-Jul-30 01:33N 31°21' E 032°22'4 1.2
2015-Jul-29 22:22N 31°24' E 032°19'0 0.0
2015-Jul-29 21:31N 31°24' E 032°19'0 0.0
2015-Jul-29 20:28N 31°24' E 032°19'0 0.0
2015-Jul-29 19:31N 31°24' E 032°19'0 0.0
2015-Jul-29 18:28N 31°24' E 032°19'0 0.0
2015-Jul-29 17:31N 31°24' E 032°19'0 0.5
2015-Jul-29 16:32N 31°24' E 032°18'3115.6
2015-Jul-29 14:33N 31°46' E 031°53'1818.1
2015-Jul-29 13:33N 31°54' E 031°34'1917.9
2015-Jul-29 12:30N 32°01' E 031°13'1717.8
2015-Jul-29 11:33N 32°07' E 030°55'2416.8
2015-Jul-29 10:09N 32°16' E 030°29'1516.6
2015-Jul-29 09:15N 32°22' E 030°13'3316.9
2015-Jul-29 07:17N 32°35' E 029°37'5517.1
2015-Jul-29 04:06N 32°56' E 028°37'917.4
2015-Jul-29 03:33N 32°60' E 028°27'1717.5
2015-Jul-29 02:33N 33°07' E 028°07'2217.4
2015-Jul-29 01:19N 33°15' E 027°44'1317.2
2015-Jul-29 00:33N 33°20' E 027°29'1717.1
2015-Jul-28 23:33N 33°27' E 027°10'1716.8
2015-Jul-28 22:33N 33°33' E 026°52'3516.7
2015-Jul-28 20:27N 33°47' E 026°13'20917.6
2015-Jul-28 08:32N 35°12' E 022°21'35817.0
2015-Jul-27 11:33N 37°52' E 015°43'1515.5
2015-Jul-27 10:33N 38°05' E 015°34'1515.2
2015-Jul-27 09:33N 38°19' E 015°42'1211.9
2015-Jul-27 08:34N 38°27' E 015°54'1 0.8
2015-Jul-27 07:29N 38°27' E 015°54'0 0.0
2015-Jul-27 06:29N 38°27' E 015°54'0 0.0
2015-Jul-27 05:29N 38°27' E 015°54'0 0.0
2015-Jul-27 04:32N 38°27' E 015°54'0 0.0
2015-Jul-27 03:29N 38°27' E 015°54'0 0.0
2015-Jul-27 02:29N 38°27' E 015°54'0 0.0
2015-Jul-27 01:32N 38°27' E 015°54'0 0.0
2015-Jul-27 00:32N 38°27' E 015°54'0 0.0
2015-Jul-26 23:32N 38°27' E 015°54'0 0.0
2015-Jul-26 22:29N 38°27' E 015°54'0 0.0
2015-Jul-26 21:29N 38°27' E 015°54'0 0.0
2015-Jul-26 20:32N 38°27' E 015°54'0 0.0
2015-Jul-26 19:32N 38°27' E 015°54'0 0.0
2015-Jul-26 18:26N 38°27' E 015°54'0 0.0
2015-Jul-26 17:32N 38°27' E 015°54'0 0.0
2015-Jul-26 16:32N 38°27' E 015°54'0 0.0
2015-Jul-26 15:29N 38°27' E 015°54'0 0.0
2015-Jul-26 14:32N 38°27' E 015°54'0 0.0
2015-Jul-26 13:32N 38°27' E 015°54'0 0.0
2015-Jul-26 12:32N 38°27' E 015°54'0 0.0
2015-Jul-26 11:32N 38°27' E 015°54'0 0.0
2015-Jul-26 10:11N 38°27' E 015°54'0 0.0
2015-Jul-26 09:32N 38°27' E 015°54'0 0.0
2015-Jul-26 08:32N 38°27' E 015°54'0 0.0
2015-Jul-26 07:26N 38°27' E 015°54'0 0.0
2015-Jul-26 06:32N 38°27' E 015°54'2 2.3
2015-Jul-26 05:33N 38°28' E 015°52'9 8.6
2015-Jul-26 04:33N 38°35' E 015°45'1817.9
2015-Jul-26 03:33N 38°50' E 015°32'10821.1
2015-Jul-25 22:26N 40°19' E 014°13'1719.5
2015-Jul-25 21:34N 40°36' E 014°06'1716.6
2015-Jul-25 20:33N 40°49' E 014°18'1 0.1
2015-Jul-25 12:23N 40°50' E 014°17'0 0.0
2015-Jul-25 10:29N 40°50' E 014°17'0 0.0
2015-Jul-25 09:29N 40°50' E 014°17'0 0.0
2015-Jul-25 07:32N 40°50' E 014°17'0 0.0
2015-Jul-25 06:32N 40°50' E 014°17'0 0.0
2015-Jul-24 23:08N 40°50' E 014°17'0 0.0
2015-Jul-24 22:29N 40°50' E 014°17'0 0.1
2015-Jul-24 21:32N 40°50' E 014°17'3 2.7
2015-Jul-24 20:33N 40°48' E 014°17'1312.9
2015-Jul-24 19:33N 40°39' E 014°05'2221.8
2015-Jul-24 18:33N 40°40' E 013°36'11922.0
2015-Jul-24 13:09N 41°36' E 011°17'1322.3
2015-Jul-24 12:33N 41°44' E 011°02'2222.2
2015-Jul-24 11:33N 41°57' E 010°38'5021.4
2015-Jul-24 09:12N 42°34' E 009°52'3621.6
2015-Jul-24 07:33N 43°09' E 009°41'2222.1
2015-Jul-24 06:34N 43°31' E 009°45'2222.0
2015-Jul-24 05:33N 43°52' E 009°51'1413.7
2015-Jul-24 04:31N 44°06' E 009°51'0 0.0
2015-Jul-24 03:31N 44°06' E 009°51'0 0.0
2015-Jul-24 02:31N 44°06' E 009°51'0 0.0
2015-Jul-24 01:31N 44°06' E 009°51'0 0.0
2015-Jul-24 00:28N 44°06' E 009°51'0 0.0
2015-Jul-23 23:31N 44°06' E 009°51'0 0.0
2015-Jul-23 22:31N 44°06' E 009°51'0 0.0
2015-Jul-23 21:31N 44°06' E 009°51'0 0.0
2015-Jul-23 20:31N 44°06' E 009°51'0 0.0
2015-Jul-23 19:31N 44°06' E 009°51'0 0.0
2015-Jul-23 18:31N 44°06' E 009°51'0 0.0
2015-Jul-23 17:31N 44°06' E 009°51'0 0.0
2015-Jul-23 16:31N 44°06' E 009°51'3 3.0
2015-Jul-23 15:33N 44°04' E 009°52'5 5.4
2015-Jul-23 14:33N 43°59' E 009°55'3 3.3
2015-Jul-23 13:32N 43°58' E 009°50'0 0.0
2015-Jul-23 12:32N 43°58' E 009°50'0 0.0
2015-Jul-23 11:32N 43°58' E 009°50'0 0.0
2015-Jul-23 10:32N 43°58' E 009°50'0 0.0
2015-Jul-23 09:32N 43°58' E 009°50'0 0.0
2015-Jul-23 08:29N 43°58' E 009°50'0 0.5
2015-Jul-23 07:34N 43°58' E 009°49'1313.1
2015-Jul-23 06:33N 43°52' E 009°33'1818.0
2015-Jul-23 05:33N 43°44' E 009°11'1818.0
2015-Jul-23 04:33N 43°36' E 008°49'1817.9
2015-Jul-23 03:33N 43°28' E 008°27'1717.5
2015-Jul-23 02:33N 43°19' E 008°05'1916.8
2015-Jul-23 01:25N 43°11' E 007°42'1516.9
2015-Jul-23 00:33N 43°05' E 007°24'1716.7
2015-Jul-22 23:33N 42°57' E 007°03'1716.6
2015-Jul-22 22:34N 42°50' E 006°43'1616.3
2015-Jul-22 21:33N 42°45' E 006°22'1616.6
2015-Jul-22 20:33N 42°45' E 005°59'1616.2
2015-Jul-22 19:33N 42°49' E 005°38'1717.2
2015-Jul-22 18:33N 43°00' E 005°20'1817.6
2015-Jul-22 17:33N 43°11' E 005°02'1313.4
2015-Jul-22 16:33N 43°24' E 004°55'4 3.5
2015-Jul-22 15:31N 43°25' E 004°50'0 0.0
2015-Jul-22 14:31N 43°25' E 004°50'0 0.0
2015-Jul-22 13:31N 43°25' E 004°50'0 0.0
2015-Jul-22 12:31N 43°25' E 004°50'0 0.0
2015-Jul-22 11:31N 43°25' E 004°50'0 0.0
2015-Jul-22 10:31N 43°25' E 004°50'0 0.0
2015-Jul-22 09:31N 43°25' E 004°50'0 0.0
2015-Jul-22 08:31N 43°25' E 004°50'0 0.0
2015-Jul-22 07:28N 43°25' E 004°50'0 0.0
2015-Jul-22 06:31N 43°25' E 004°50'0 0.0
2015-Jul-22 05:28N 43°25' E 004°50'0 0.0
2015-Jul-22 04:31N 43°25' E 004°50'0 0.0
2015-Jul-22 03:31N 43°25' E 004°50'0 0.2
2015-Jul-22 02:33N 43°25' E 004°50'7 6.6
2015-Jul-22 01:33N 43°22' E 004°58'1110.7
2015-Jul-22 00:33N 43°11' E 005°02'2019.8
2015-Jul-21 23:33N 42°54' E 004°48'1919.1
2015-Jul-21 22:33N 42°39' E 004°33'1919.0
2015-Jul-21 21:33N 42°23' E 004°20'1919.3
2015-Jul-21 20:33N 42°06' E 004°05'1919.2
2015-Jul-21 19:33N 41°51' E 003°50'1918.7
2015-Jul-21 18:33N 41°36' E 003°34'1918.8
2015-Jul-21 17:33N 41°22' E 003°18'1919.0
2015-Jul-21 16:33N 41°07' E 003°02'1919.1
2015-Jul-21 15:33N 40°52' E 002°46'1919.2
2015-Jul-21 14:33N 40°38' E 002°30'1919.4
2015-Jul-21 13:33N 40°23' E 002°13'1919.6
2015-Jul-21 12:34N 40°07' E 001°57'1919.3
2015-Jul-21 11:33N 39°52' E 001°41'2019.1
2015-Jul-21 10:32N 39°38' E 001°25'1919.2
2015-Jul-21 09:32N 39°23' E 001°09'1919.4
2015-Jul-21 08:33N 39°08' E 000°54'1919.1
2015-Jul-21 07:34N 38°53' E 000°38'1919.1
2015-Jul-21 06:33N 38°37' E 000°24'1919.4
2015-Jul-21 05:33N 38°21' E 000°10'2019.4
2015-Jul-21 04:33N 38°05' W 000°03'1919.4
2015-Jul-21 03:33N 37°49' W 000°16'2019.8
2015-Jul-21 02:33N 37°33' W 000°32'2019.7
2015-Jul-21 01:33N 37°20' W 000°50'2019.3
2015-Jul-21 00:30N 37°06' W 001°09'1919.7
2015-Jul-20 23:33N 36°55' W 001°27'5918.9
2015-Jul-20 20:26N 36°20' W 002°27'27719.8
2015-Jul-20 06:24N 36°19' W 008°11'1821.7
2015-Jul-20 05:34N 36°23' W 008°33'2121.5
2015-Jul-20 04:34N 36°29' W 008°59'2420.3
2015-Jul-20 03:23N 36°40' W 009°25'  

Dump ship's entire track history